createdAt,value
2023-04-02T00:01:01.650Z,10.27
2023-04-02T00:03:44.045Z,10.32
2023-04-02T00:06:33.279Z,10.38
2023-04-02T00:09:13.879Z,10.42
2023-04-02T00:11:46.695Z,10.44
2023-04-02T00:14:33.700Z,10.42
2023-04-02T00:17:05.035Z,10.43
2023-04-02T00:19:58.324Z,10.41
2023-04-02T00:22:32.606Z,10.40
2023-04-02T00:25:07.845Z,10.41
2023-04-02T00:27:36.627Z,10.44
2023-04-02T00:30:06.546Z,10.48
2023-04-02T00:32:38.826Z,10.51
2023-04-02T00:35:23.567Z,10.50
2023-04-02T00:37:52.566Z,10.43
2023-04-02T00:40:25.777Z,10.43
2023-04-02T00:42:56.710Z,10.40
2023-04-02T00:45:31.009Z,10.39
2023-04-02T00:48:13.926Z,10.38
2023-04-02T00:50:45.178Z,10.32
2023-04-02T00:53:22.621Z,10.21
2023-04-02T00:55:51.254Z,10.13
2023-04-02T00:58:32.907Z,10.11
2023-04-02T01:01:02.520Z,10.08
2023-04-02T01:03:38.124Z,10.05
2023-04-02T01:06:19.157Z,10.02
2023-04-02T01:09:24.878Z,9.98
2023-04-02T01:11:56.097Z,9.91
2023-04-02T01:14:24.136Z,9.85
2023-04-02T01:16:55.287Z,9.83
2023-04-02T01:19:45.275Z,9.84
2023-04-02T01:22:18.450Z,9.82
2023-04-02T01:24:46.704Z,9.82
2023-04-02T01:27:18.590Z,9.84
2023-04-02T01:29:56.884Z,9.88
2023-04-02T01:32:28.147Z,9.86
2023-04-02T01:34:58.497Z,9.89
2023-04-02T01:37:46.854Z,9.91
2023-04-02T01:40:27.450Z,9.91
2023-04-02T01:43:23.212Z,9.94
2023-04-02T01:45:51.375Z,9.95
2023-04-02T01:48:24.814Z,9.93
2023-04-02T01:50:57.145Z,9.91
2023-04-02T01:53:29.663Z,9.91
2023-04-02T01:56:01.460Z,9.92
2023-04-02T01:58:32.921Z,9.90
2023-04-02T02:01:25.030Z,9.86
2023-04-02T02:03:54.462Z,9.82
2023-04-02T02:06:23.247Z,9.82
2023-04-02T02:08:58.296Z,9.84
2023-04-02T02:11:30.146Z,9.89
2023-04-02T02:14:01.214Z,9.91
2023-04-02T02:16:32.245Z,9.93
2023-04-02T02:19:03.974Z,9.95
2023-04-02T02:21:32.157Z,9.90
2023-04-02T02:24:01.864Z,9.90
2023-04-02T02:26:34.142Z,9.85
2023-04-02T02:29:07.122Z,9.83
2023-04-02T02:31:36.437Z,9.78
2023-04-02T02:34:14.633Z,9.79
2023-04-02T02:36:55.297Z,9.82
2023-04-02T02:39:44.752Z,9.84
2023-04-02T02:42:21.972Z,9.88
2023-04-02T02:44:54.124Z,9.90
2023-04-02T02:47:23.836Z,9.88
2023-04-02T02:50:02.859Z,9.83
2023-04-02T02:52:35.201Z,9.83
2023-04-02T02:55:18.869Z,9.86
2023-04-02T02:58:23.879Z,9.85
2023-04-02T03:01:14.839Z,9.78
2023-04-02T03:03:47.725Z,9.75
2023-04-02T03:06:20.895Z,9.65
2023-04-02T03:09:18.989Z,9.60
2023-04-02T03:12:06.791Z,9.57
2023-04-02T03:14:40.738Z,9.57
2023-04-02T03:17:27.001Z,9.56
2023-04-02T03:20:02.369Z,9.54
2023-04-02T03:23:06.026Z,9.54
2023-04-02T03:25:35.155Z,9.53
2023-04-02T03:28:08.004Z,9.52
2023-04-02T03:30:55.685Z,9.54
2023-04-02T03:33:27.946Z,9.59
2023-04-02T03:36:00.338Z,9.59
2023-04-02T03:38:33.906Z,9.58
2023-04-02T03:41:54.652Z,9.60
2023-04-02T03:44:52.884Z,9.65
2023-04-02T03:47:27.436Z,9.69
2023-04-02T03:50:06.540Z,9.72
2023-04-02T03:52:37.593Z,9.75
2023-04-02T03:55:16.189Z,9.75
2023-04-02T03:58:16.226Z,9.75
2023-04-02T04:01:01.163Z,9.72
2023-04-02T04:03:41.937Z,9.70
2023-04-02T04:06:25.206Z,9.73
2023-04-02T04:09:16.525Z,9.80
2023-04-02T04:11:48.397Z,9.85
2023-04-02T04:14:28.798Z,9.91
2023-04-02T04:17:13.957Z,9.95
2023-04-02T04:19:55.581Z,9.99
2023-04-02T04:22:33.733Z,10.00
2023-04-02T04:25:22.645Z,9.99
2023-04-02T04:28:44.730Z,9.96
2023-04-02T04:31:25.769Z,9.89
2023-04-02T04:34:04.553Z,9.83
2023-04-02T04:36:54.435Z,9.83
2023-04-02T04:39:49.537Z,9.83
2023-04-02T04:42:31.458Z,9.77
2023-04-02T04:45:08.536Z,9.72
2023-04-02T04:47:43.724Z,9.69
2023-04-02T04:50:18.994Z,9.66
2023-04-02T04:52:48.016Z,9.64
2023-04-02T04:55:39.782Z,9.63
2023-04-02T04:58:26.052Z,9.62
2023-04-02T05:01:03.643Z,9.61
2023-04-02T05:03:58.430Z,9.61
2023-04-02T05:06:34.999Z,9.62
2023-04-02T05:09:15.971Z,9.64
2023-04-02T05:11:53.830Z,9.68
2023-04-02T05:14:48.586Z,9.71
2023-04-02T05:18:10.354Z,9.75
2023-04-02T05:20:51.578Z,9.75
2023-04-02T05:23:28.974Z,9.79
2023-04-02T05:26:14.153Z,9.81
2023-04-02T05:28:54.596Z,9.82
2023-04-02T05:31:37.653Z,9.84
2023-04-02T05:34:06.512Z,9.81
2023-04-02T05:36:35.644Z,9.83
2023-04-02T05:39:09.735Z,9.84
2023-04-02T05:41:47.683Z,9.82
2023-04-02T05:44:33.525Z,9.83
2023-04-02T05:47:12.299Z,9.81
2023-04-02T05:50:02.063Z,9.85
2023-04-02T05:52:37.974Z,9.93
2023-04-02T05:55:12.602Z,9.87
2023-04-02T05:58:10.469Z,9.91
2023-04-02T06:00:40.946Z,9.88
2023-04-02T06:03:24.227Z,9.90
2023-04-02T06:05:59.676Z,9.94
2023-04-02T06:08:36.904Z,9.93
2023-04-02T06:11:11.460Z,9.92
2023-04-02T06:13:43.231Z,9.88
2023-04-02T06:16:16.852Z,9.86
2023-04-02T06:18:46.209Z,9.94
2023-04-02T06:21:17.998Z,10.01
2023-04-02T06:23:54.063Z,10.06
2023-04-02T06:26:26.622Z,10.11
2023-04-02T06:29:13.336Z,10.15
2023-04-02T06:31:55.627Z,10.16
2023-04-02T06:34:27.954Z,10.20
2023-04-02T06:37:29.196Z,10.23
2023-04-02T06:40:35.781Z,10.19
2023-04-02T06:43:36.504Z,10.26
2023-04-02T06:46:44.088Z,10.27
2023-04-02T06:49:23.195Z,10.22
2023-04-02T06:51:55.505Z,10.28
2023-04-02T06:54:23.727Z,10.27
2023-04-02T06:56:56.841Z,10.26
2023-04-02T06:59:29.431Z,10.10
2023-04-02T07:02:06.799Z,10.05
2023-04-02T07:04:35.601Z,9.96
2023-04-02T07:07:04.574Z,9.93
2023-04-02T07:09:36.861Z,9.84
2023-04-02T07:12:14.463Z,9.87
2023-04-02T07:14:44.146Z,9.79
2023-04-02T07:17:18.004Z,9.76
2023-04-02T07:19:49.900Z,9.73
2023-04-02T07:22:22.340Z,9.65
2023-04-02T07:24:56.810Z,9.68
2023-04-02T07:27:25.096Z,9.68
2023-04-02T07:29:53.256Z,9.65
2023-04-02T07:32:21.438Z,9.62
2023-04-02T07:34:49.606Z,9.61
2023-04-02T07:37:17.652Z,9.61
2023-04-02T07:39:45.728Z,9.66
2023-04-02T07:42:13.931Z,9.68
2023-04-02T07:44:42.113Z,9.68
2023-04-02T07:47:10.887Z,9.71
2023-04-02T07:49:39.053Z,9.74
2023-04-02T07:52:07.297Z,9.74
2023-04-02T07:54:36.049Z,9.66
2023-04-02T07:57:04.213Z,9.67
2023-04-02T07:59:32.353Z,9.72
2023-04-02T08:02:00.500Z,9.78
2023-04-02T08:04:28.766Z,9.72
2023-04-02T08:06:57.090Z,9.72
2023-04-02T08:09:25.776Z,9.79
2023-04-02T08:11:53.943Z,9.84
2023-04-02T08:14:22.333Z,9.90
2023-04-02T08:16:53.898Z,9.91
2023-04-02T08:19:22.362Z,9.94
2023-04-02T08:21:52.078Z,9.99
2023-04-02T08:24:21.566Z,10.04
2023-04-02T08:26:51.667Z,10.06
2023-04-02T08:29:21.385Z,10.07
2023-04-02T08:31:49.682Z,10.07
2023-04-02T08:34:17.866Z,10.01
2023-04-02T08:36:46.380Z,10.02
2023-04-02T08:39:14.951Z,10.03
2023-04-02T08:41:52.410Z,10.05
2023-04-02T08:44:41.261Z,9.96
2023-04-02T08:47:11.122Z,10.02
2023-04-02T08:49:45.016Z,10.03
2023-04-02T08:52:26.067Z,10.03
2023-04-02T08:54:56.414Z,10.03
2023-04-02T08:57:40.027Z,10.05
2023-04-02T09:00:28.899Z,10.03
2023-04-02T09:03:14.953Z,10.08
2023-04-02T09:05:45.468Z,10.12
2023-04-02T09:08:24.620Z,10.14
2023-04-02T09:11:19.241Z,10.17
2023-04-02T09:13:52.572Z,10.20
2023-04-02T09:16:34.480Z,10.21
2023-04-02T09:19:02.811Z,10.21
2023-04-02T09:21:37.617Z,10.24
2023-04-02T09:24:06.018Z,10.23
2023-04-02T09:26:34.483Z,10.29
2023-04-02T09:29:08.434Z,10.31
2023-04-02T09:31:53.742Z,10.36
2023-04-02T09:34:35.543Z,10.44
2023-04-02T09:37:14.383Z,10.48
2023-04-02T09:39:43.191Z,10.48
2023-04-02T09:42:38.335Z,10.52
2023-04-02T09:45:17.338Z,10.57
2023-04-02T09:47:45.708Z,10.62
2023-04-02T09:50:34.606Z,10.66
2023-04-02T09:53:31.100Z,10.72
2023-04-02T09:56:23.910Z,10.69
2023-04-02T09:59:18.217Z,10.67
2023-04-02T10:01:57.470Z,10.66
2023-04-02T10:04:48.783Z,10.65
2023-04-02T10:07:41.510Z,10.68
2023-04-02T10:10:29.514Z,10.68
2023-04-02T10:13:02.601Z,10.71
2023-04-02T10:15:35.851Z,10.71
2023-04-02T10:18:16.832Z,10.69
2023-04-02T10:20:51.226Z,10.66
2023-04-02T10:23:24.286Z,10.69
2023-04-02T10:26:18.151Z,10.75
2023-04-02T10:29:06.695Z,10.79
2023-04-02T10:31:58.738Z,10.89
2023-04-02T10:34:35.782Z,11.02
2023-04-02T10:37:25.613Z,11.18
2023-04-02T10:40:00.671Z,11.37
2023-04-02T10:42:48.674Z,11.53
2023-04-02T10:45:44.112Z,11.64
2023-04-02T10:48:15.046Z,11.76
2023-04-02T10:50:57.688Z,11.88
2023-04-02T10:53:37.845Z,11.97
2023-04-02T10:56:11.642Z,11.93
2023-04-02T10:58:55.565Z,11.94
2023-04-02T11:01:29.780Z,11.98
2023-04-02T11:04:05.820Z,12.04
2023-04-02T11:07:07.069Z,12.06
2023-04-02T11:09:43.885Z,12.18
2023-04-02T11:12:41.676Z,12.16
2023-04-02T11:15:18.109Z,12.25
2023-04-02T11:17:47.690Z,12.44
2023-04-02T11:20:50.039Z,12.52
2023-04-02T11:23:20.541Z,12.51
2023-04-02T11:25:49.265Z,12.49
2023-04-02T11:28:31.624Z,12.50
2023-04-02T11:31:00.416Z,12.53
2023-04-02T11:33:38.414Z,12.56
2023-04-02T11:36:47.069Z,12.58
2023-04-02T11:39:46.994Z,12.53
2023-04-02T11:42:31.574Z,12.58
2023-04-02T11:45:28.521Z,12.58
2023-04-02T11:47:59.772Z,12.66
2023-04-02T11:50:34.076Z,12.70
2023-04-02T11:53:21.802Z,12.69
2023-04-02T11:56:09.076Z,12.53
2023-04-02T11:58:52.370Z,12.39
2023-04-02T12:01:38.921Z,12.17
2023-04-02T12:04:17.443Z,12.30
2023-04-02T12:07:17.853Z,12.44
2023-04-02T12:09:56.371Z,12.27
2023-04-02T12:12:24.465Z,12.12
2023-04-02T12:14:56.042Z,12.27
2023-04-02T12:17:37.174Z,12.25
2023-04-02T12:20:10.003Z,12.16
2023-04-02T12:22:46.153Z,12.23
2023-04-02T12:25:31.557Z,12.11
2023-04-02T12:28:14.581Z,12.15
2023-04-02T12:30:42.776Z,12.08
2023-04-02T12:33:28.108Z,12.14
2023-04-02T12:36:01.082Z,12.13
2023-04-02T12:38:39.139Z,12.17
2023-04-02T12:41:19.499Z,12.15
2023-04-02T12:43:47.625Z,12.11
2023-04-02T12:46:15.993Z,12.03
2023-04-02T12:48:44.397Z,11.98
2023-04-02T12:51:12.690Z,11.91
2023-04-02T12:53:41.973Z,11.92
2023-04-02T12:56:21.771Z,11.94
2023-04-02T12:58:58.573Z,11.97
2023-04-02T13:01:29.268Z,11.99
2023-04-02T13:04:10.009Z,11.93
2023-04-02T13:06:41.988Z,11.94
2023-04-02T13:09:30.872Z,11.95
2023-04-02T13:11:59.514Z,12.00
2023-04-02T13:14:28.617Z,12.01
2023-04-02T13:16:56.852Z,12.03
2023-04-02T13:19:34.819Z,12.05
2023-04-02T13:22:04.402Z,12.05
2023-04-02T13:24:35.760Z,12.01
2023-04-02T13:27:04.278Z,12.01
2023-04-02T13:29:36.856Z,12.06
2023-04-02T13:32:08.103Z,12.12
2023-04-02T13:34:36.252Z,12.08
2023-04-02T13:37:04.768Z,12.21
2023-04-02T13:39:35.629Z,12.22
2023-04-02T13:42:07.116Z,12.28
2023-04-02T13:44:39.671Z,12.24
2023-04-02T13:47:19.762Z,12.11
2023-04-02T13:49:52.102Z,12.07
2023-04-02T13:52:20.584Z,12.04
2023-04-02T13:55:01.991Z,11.94
2023-04-02T13:57:30.522Z,11.96
2023-04-02T13:59:59.185Z,11.98
2023-04-02T14:02:28.289Z,11.87
2023-04-02T14:05:15.859Z,11.82
2023-04-02T14:07:56.798Z,11.83
2023-04-02T14:10:48.402Z,11.75
2023-04-02T14:13:21.171Z,11.69
2023-04-02T14:16:11.275Z,11.68
2023-04-02T14:18:48.171Z,11.68
2023-04-02T14:21:34.807Z,11.66
2023-04-02T14:24:27.621Z,11.66
2023-04-02T14:27:19.079Z,11.66
2023-04-02T14:30:00.958Z,11.62
2023-04-02T14:32:59.888Z,11.50
2023-04-02T14:35:37.410Z,11.49
2023-04-02T14:38:34.058Z,11.49
2023-04-02T14:41:14.063Z,11.42
2023-04-02T14:43:59.439Z,11.39
2023-04-02T14:46:29.088Z,11.44
2023-04-02T14:49:00.216Z,11.49
2023-04-02T14:51:40.998Z,11.50
2023-04-02T14:54:27.863Z,11.44
2023-04-02T14:57:37.097Z,11.43
2023-04-02T15:00:28.110Z,11.42
2023-04-02T15:03:29.766Z,11.38
2023-04-02T15:06:10.505Z,11.33
2023-04-02T15:08:50.197Z,11.29
2023-04-02T15:11:37.912Z,11.33
2023-04-02T15:14:18.556Z,11.30
2023-04-02T15:16:46.915Z,11.24
2023-04-02T15:19:19.261Z,11.26
2023-04-02T15:22:24.989Z,11.26
2023-04-02T15:25:38.155Z,11.27
2023-04-02T15:28:22.845Z,11.35
2023-04-02T15:30:58.816Z,11.41
2023-04-02T15:33:30.126Z,11.45
2023-04-02T15:35:58.235Z,11.50
2023-04-02T15:38:43.905Z,11.49
2023-04-02T15:41:16.046Z,11.46
2023-04-02T15:43:48.566Z,11.40
2023-04-02T15:46:16.706Z,11.37
2023-04-02T15:49:00.183Z,11.37
2023-04-02T15:51:30.972Z,11.36
2023-04-02T15:54:06.954Z,11.35
2023-04-02T15:56:50.510Z,11.31
2023-04-02T15:59:29.715Z,11.19
2023-04-02T16:02:39.992Z,11.12
2023-04-02T16:05:48.925Z,11.02
2023-04-02T16:08:53.127Z,10.98
2023-04-02T16:11:21.294Z,10.91
2023-04-02T16:13:54.023Z,10.86
2023-04-02T16:16:26.222Z,10.83
2023-04-02T16:19:04.976Z,10.81
2023-04-02T16:21:50.908Z,10.75
2023-04-02T16:24:19.981Z,10.68
2023-04-02T16:27:02.174Z,10.72
2023-04-02T16:29:54.927Z,10.77
2023-04-02T16:32:39.373Z,10.81
2023-04-02T16:38:25.261Z,10.85
2023-04-02T16:41:07.935Z,10.89
2023-04-02T16:43:52.375Z,10.89
2023-04-02T16:49:32.757Z,10.88
2023-04-02T16:52:17.449Z,10.87
2023-04-02T16:55:11.818Z,10.86
2023-04-02T16:58:03.163Z,10.85
2023-04-02T17:00:46.758Z,10.82
2023-04-02T17:03:57.296Z,10.80
2023-04-02T17:06:44.020Z,10.82
2023-04-02T17:09:17.673Z,10.75
2023-04-02T17:11:55.612Z,10.78
2023-04-02T17:14:48.397Z,10.85
2023-04-02T17:17:16.743Z,10.90
2023-04-02T17:19:45.355Z,10.94
2023-04-02T17:22:19.009Z,10.95
2023-04-02T17:24:58.887Z,10.95
2023-04-02T17:27:38.293Z,10.93
2023-04-02T17:30:15.539Z,10.91
2023-04-02T17:32:43.857Z,10.85
2023-04-02T17:35:21.065Z,10.74
2023-04-02T17:37:52.911Z,10.66
2023-04-02T17:40:49.240Z,10.62
2023-04-02T17:43:52.589Z,10.58
2023-04-02T17:46:27.259Z,10.52
2023-04-02T17:49:24.352Z,10.47
2023-04-02T17:52:16.564Z,10.40
2023-04-02T17:54:55.697Z,10.36
2023-04-02T17:57:32.865Z,10.31
2023-04-02T18:00:10.553Z,10.27
2023-04-02T18:02:42.048Z,10.23
2023-04-02T18:05:40.634Z,10.20
2023-04-02T18:08:29.257Z,10.20
2023-04-02T18:11:30.162Z,10.17
2023-04-02T18:13:58.249Z,10.19
2023-04-02T18:16:46.813Z,10.22
2023-04-02T18:19:20.629Z,10.25
2023-04-02T18:22:17.010Z,10.27
2023-04-02T18:24:51.338Z,10.31
2023-04-02T18:27:38.688Z,10.32
2023-04-02T18:30:27.630Z,10.38
2023-04-02T18:33:46.750Z,10.42
2023-04-02T18:36:44.475Z,10.48
2023-04-02T18:39:39.997Z,10.54
2023-04-02T18:42:40.541Z,10.61
2023-04-02T18:45:42.732Z,10.58
2023-04-02T18:48:32.923Z,10.64
2023-04-02T18:51:02.338Z,10.65
2023-04-02T18:53:32.830Z,10.70
2023-04-02T18:56:11.864Z,10.75
2023-04-02T18:58:57.032Z,10.79
2023-04-02T19:01:37.964Z,10.84
2023-04-02T19:04:09.900Z,10.82
2023-04-02T19:06:44.932Z,10.80
2023-04-02T19:09:18.989Z,10.83
2023-04-02T19:11:49.136Z,10.90
2023-04-02T19:14:19.238Z,10.90
2023-04-02T19:17:06.208Z,10.91
2023-04-02T19:19:39.402Z,10.87
2023-04-02T19:22:30.340Z,10.84
2023-04-02T19:25:10.503Z,10.82
2023-04-02T19:28:09.300Z,10.76
2023-04-02T19:31:11.966Z,10.68
2023-04-02T19:33:45.797Z,10.60
2023-04-02T19:36:29.346Z,10.53
2023-04-02T19:39:12.400Z,10.45
2023-04-02T19:41:48.514Z,10.37
2023-04-02T19:44:18.116Z,10.27
2023-04-02T19:46:47.145Z,10.21
2023-04-02T19:49:24.989Z,10.17
2023-04-02T19:51:53.769Z,10.13
2023-04-02T19:54:22.394Z,10.07
2023-04-02T19:56:51.144Z,10.03
2023-04-02T19:59:19.815Z,9.97
2023-04-02T20:01:47.915Z,9.96
2023-04-02T20:04:16.132Z,9.93
2023-04-02T20:06:44.528Z,9.93
2023-04-02T20:09:12.629Z,9.95
2023-04-02T20:11:41.086Z,10.00
2023-04-02T20:14:09.204Z,10.05
2023-04-02T20:16:38.844Z,10.05
2023-04-02T20:19:07.105Z,10.01
2023-04-02T20:21:38.756Z,9.98
2023-04-02T20:24:08.089Z,9.97
2023-04-02T20:26:36.433Z,10.02
2023-04-02T20:29:05.117Z,10.05
2023-04-02T20:31:33.744Z,10.06
2023-04-02T20:34:05.043Z,10.07
2023-04-02T20:36:33.554Z,10.07
2023-04-02T20:39:02.069Z,10.05
2023-04-02T20:41:30.263Z,10.03
2023-04-02T20:43:59.839Z,10.01
2023-04-02T20:46:28.271Z,10.01
2023-04-02T20:48:56.513Z,10.03
2023-04-02T20:51:24.823Z,10.02
2023-04-02T20:53:53.884Z,9.99
2023-04-02T20:56:26.694Z,9.93
2023-04-02T20:58:54.895Z,9.91
2023-04-02T21:01:25.427Z,9.90
2023-04-02T21:03:59.420Z,9.89
2023-04-02T21:06:30.909Z,9.82
2023-04-02T21:08:59.207Z,9.76
2023-04-02T21:11:27.514Z,9.73
2023-04-02T21:13:55.794Z,9.69
2023-04-02T21:16:29.948Z,9.67
2023-04-02T21:19:01.072Z,9.65
2023-04-02T21:21:29.734Z,9.68
2023-04-02T21:24:00.637Z,9.69
2023-04-02T21:26:33.337Z,9.70
2023-04-02T21:29:03.917Z,9.72
2023-04-02T21:31:38.182Z,9.69
2023-04-02T21:34:08.594Z,9.67
2023-04-02T21:36:42.221Z,9.67
2023-04-02T21:39:17.350Z,9.64
2023-04-02T21:41:47.543Z,9.60
2023-04-02T21:44:18.122Z,9.53
2023-04-02T21:46:46.979Z,9.47
2023-04-02T21:49:18.868Z,9.42
2023-04-02T21:51:47.551Z,9.34
2023-04-02T21:54:16.376Z,9.29
2023-04-02T21:56:46.462Z,9.25
2023-04-02T21:59:16.789Z,9.20
2023-04-02T22:01:50.859Z,9.15
2023-04-02T22:04:24.925Z,9.06
2023-04-02T22:06:53.905Z,8.97
2023-04-02T22:09:24.544Z,8.93
2023-04-02T22:11:56.322Z,8.88
2023-04-02T22:14:24.760Z,8.84
2023-04-02T22:16:53.290Z,8.83
2023-04-02T22:19:22.095Z,8.83
2023-04-02T22:21:51.690Z,8.83
2023-04-02T22:24:22.376Z,8.84
2023-04-02T22:26:51.201Z,8.83
2023-04-02T22:29:19.431Z,8.83
2023-04-02T22:31:48.042Z,8.82
2023-04-02T22:34:16.794Z,8.83
2023-04-02T22:36:46.300Z,8.81
2023-04-02T22:39:17.202Z,8.79
2023-04-02T22:41:45.636Z,8.79
2023-04-02T22:44:15.558Z,8.80
2023-04-02T22:46:43.817Z,8.81
2023-04-02T22:49:12.736Z,8.78
2023-04-02T22:51:41.069Z,8.78
2023-04-02T22:54:09.448Z,8.76
2023-04-02T22:56:37.722Z,8.79
2023-04-02T22:59:06.203Z,8.78
2023-04-02T23:01:36.289Z,8.76
2023-04-02T23:04:05.629Z,8.75
2023-04-02T23:06:34.215Z,8.76
2023-04-02T23:09:02.692Z,8.75
2023-04-02T23:11:31.380Z,8.74
2023-04-02T23:14:00.372Z,8.74
2023-04-02T23:16:29.632Z,8.72
2023-04-02T23:18:58.899Z,8.69
2023-04-02T23:21:27.661Z,8.64
2023-04-02T23:23:56.652Z,8.60
2023-04-02T23:26:29.659Z,8.57
2023-04-02T23:28:58.635Z,8.59
2023-04-02T23:31:27.879Z,8.59
2023-04-02T23:33:56.304Z,8.58
2023-04-02T23:36:25.913Z,8.55
2023-04-02T23:38:58.670Z,8.52
2023-04-02T23:41:28.610Z,8.54
2023-04-02T23:43:58.337Z,8.54
2023-04-02T23:46:28.552Z,8.50
2023-04-02T23:48:57.812Z,8.47
2023-04-02T23:51:27.242Z,8.47
2023-04-02T23:53:56.479Z,8.48
2023-04-02T23:56:26.152Z,8.48
2023-04-02T23:58:54.638Z,8.46
